createdAt,value
2014-07-27T00:00:53.301Z,68.07
2014-07-27T00:01:58.584Z,68.39
2014-07-27T00:03:03.570Z,68.84
2014-07-27T00:04:08.260Z,68.98
2014-07-27T00:05:12.934Z,68.96
2014-07-27T00:06:17.623Z,68.5
2014-07-27T00:07:22.297Z,68.56
2014-07-27T00:08:26.986Z,68.77
2014-07-27T00:09:31.676Z,68.78
2014-07-27T00:10:36.352Z,68.73
2014-07-27T00:11:41.041Z,70.09
2014-07-27T00:12:45.731Z,70.23
2014-07-27T00:13:50.404Z,69.99
2014-07-27T00:14:55.094Z,70.07
2014-07-27T00:16:00.081Z,69.35
2014-07-27T00:17:04.770Z,70
2014-07-27T00:18:09.460Z,69.75
2014-07-27T00:19:14.132Z,68.98
2014-07-27T00:20:18.822Z,68.96
2014-07-27T00:21:23.497Z,68.72
2014-07-27T00:22:28.483Z,68.77
2014-07-27T00:23:33.470Z,68.95
2014-07-27T00:24:38.159Z,69.21
2014-07-27T00:25:43.129Z,69.58
2014-07-27T00:26:47.819Z,69.54
2014-07-27T00:27:52.508Z,69.5
2014-07-27T00:28:57.198Z,69.25
2014-07-27T00:30:01.871Z,69.7
2014-07-27T00:31:06.562Z,69.92
2014-07-27T00:32:11.252Z,69.97
2014-07-27T00:33:15.926Z,69.88
2014-07-27T00:34:20.912Z,70.07
2014-07-27T00:35:26.196Z,69.89
2014-07-27T00:36:30.885Z,69.51
2014-07-27T00:37:35.575Z,69.62
2014-07-27T00:38:40.561Z,69.47
2014-07-27T00:39:45.251Z,69.76
2014-07-27T00:40:49.940Z,69.31
2014-07-27T00:41:54.926Z,68.96
2014-07-27T00:42:59.599Z,68.79
2014-07-27T00:44:04.587Z,68.78
2014-07-27T00:45:09.276Z,69.03
2014-07-27T00:46:13.965Z,68.88
2014-07-27T00:47:18.935Z,68.91
2014-07-27T00:48:23.657Z,68.76
2014-07-27T00:49:28.348Z,68.53
2014-07-27T00:50:33.022Z,68.39
2014-07-27T00:51:37.711Z,68.87
2014-07-27T00:52:42.697Z,68.87
2014-07-27T00:53:47.387Z,69.27
2014-07-27T00:54:52.076Z,69.14
2014-07-27T00:55:57.063Z,69.19
2014-07-27T00:57:01.752Z,69.09
2014-07-27T00:58:06.441Z,68.8
2014-07-27T00:59:11.428Z,68.77
2014-07-27T01:00:16.118Z,68.58
2014-07-27T01:01:21.104Z,68.61
2014-07-27T01:02:26.090Z,68.61
2014-07-27T01:03:30.780Z,69.14
2014-07-27T01:04:35.469Z,69.54
2014-07-27T01:05:40.143Z,69.43
2014-07-27T01:06:44.833Z,69.34
2014-07-27T01:07:49.522Z,69.28
2014-07-27T01:08:54.196Z,69.17
2014-07-27T01:09:58.886Z,69.53
2014-07-27T01:11:03.872Z,69.32
2014-07-27T01:12:08.547Z,69.09
2014-07-27T01:13:13.236Z,69.27
2014-07-27T01:14:17.926Z,69.13
2014-07-27T01:15:22.911Z,68.93
2014-07-27T01:16:27.900Z,69.33
2014-07-27T01:17:32.886Z,68.97
2014-07-27T01:18:37.559Z,68.75
2014-07-27T01:19:42.546Z,69.18
2014-07-27T01:20:47.236Z,68.78
2014-07-27T01:21:52.207Z,68.83
2014-07-27T01:22:56.896Z,69.18
2014-07-27T01:24:01.882Z,69.14
2014-07-27T01:25:06.869Z,69.27
2014-07-27T01:26:11.543Z,69.07
2014-07-27T01:27:16.232Z,69.19
2014-07-27T01:28:21.219Z,69.05
2014-07-27T01:29:25.909Z,68.39
2014-07-27T01:30:30.583Z,68.37
2014-07-27T01:31:35.568Z,68.8
2014-07-27T01:32:40.259Z,68.78
2014-07-27T01:33:44.933Z,68.67
2014-07-27T01:34:49.622Z,68.57
2014-07-27T01:35:54.312Z,68.23
2014-07-27T01:36:59.002Z,68.01
2014-07-27T01:38:03.988Z,68.65
2014-07-27T01:39:08.974Z,68.33
2014-07-27T01:40:13.648Z,68.67
2014-07-27T01:41:18.338Z,69.32
2014-07-27T01:42:23.027Z,68.9
2014-07-27T01:43:28.014Z,69.31
2014-07-27T01:44:32.687Z,68.98
2014-07-27T01:45:37.378Z,69.2
2014-07-27T01:46:42.066Z,69.92
2014-07-27T01:47:46.741Z,69.39
2014-07-27T01:48:51.430Z,68.98
2014-07-27T01:49:56.417Z,68.65
2014-07-27T01:51:01.403Z,68.54
2014-07-27T01:52:06.076Z,69.2
2014-07-27T01:53:10.766Z,69.35
2014-07-27T01:54:15.752Z,70
2014-07-27T01:55:20.426Z,69.71
2014-07-27T01:56:25.412Z,69.43
2014-07-27T01:57:30.384Z,69.7
2014-07-27T01:58:35.074Z,70.31
2014-07-27T01:59:39.764Z,69.8
2014-07-27T02:00:44.453Z,70.35
2014-07-27T02:01:49.127Z,70.38
2014-07-27T02:02:53.817Z,71.02
2014-07-27T02:03:58.803Z,71.1
2014-07-27T02:05:03.477Z,71.68
2014-07-27T02:06:08.182Z,71.77
2014-07-27T02:07:13.169Z,71.39
2014-07-27T02:08:18.139Z,70.86
2014-07-27T02:09:22.829Z,70.36
2014-07-27T02:10:27.534Z,69.98
2014-07-27T02:11:32.223Z,70.09
2014-07-27T02:12:36.914Z,69.62
2014-07-27T02:13:41.588Z,69.37
2014-07-27T02:14:46.574Z,69.51
2014-07-27T02:15:51.264Z,69.81
2014-07-27T02:16:55.969Z,69.66
2014-07-27T02:18:00.658Z,69.31
2014-07-27T02:19:05.331Z,69.19
2014-07-27T02:20:10.021Z,70.44
2014-07-27T02:21:15.007Z,70.44
2014-07-27T02:22:19.697Z,70.7
2014-07-27T02:23:24.667Z,70.05
2014-07-27T02:24:29.357Z,70.4
2014-07-27T02:25:34.046Z,70.56
2014-07-27T02:26:38.736Z,70.46
2014-07-27T02:27:43.411Z,70.83
2014-07-27T02:28:48.100Z,70.82
2014-07-27T02:29:52.789Z,71.54
2014-07-27T02:30:57.464Z,70.99
2014-07-27T02:32:02.153Z,70.63
2014-07-27T02:33:06.843Z,70.81
2014-07-27T02:34:11.813Z,70.87
2014-07-27T02:35:16.503Z,70.4
2014-07-27T02:36:21.474Z,70.45
2014-07-27T02:37:26.165Z,70.56
2014-07-27T02:38:30.854Z,70.12
2014-07-27T02:39:35.824Z,70.24
2014-07-27T02:40:40.515Z,70.09
2014-07-27T02:41:45.501Z,70.26
2014-07-27T02:42:50.191Z,69.58
2014-07-27T02:43:54.865Z,69.06
2014-07-27T02:44:59.554Z,69.12
2014-07-27T02:46:04.244Z,68.99
2014-07-27T02:47:09.229Z,68.69
2014-07-27T02:48:13.904Z,68.66
2014-07-27T02:49:18.593Z,69.49
2014-07-27T02:50:23.580Z,69.54
2014-07-27T02:51:28.285Z,69.6
2014-07-27T02:52:32.974Z,69.1
2014-07-27T02:53:36.961Z,68.79
2014-07-27T02:54:41.649Z,68.91
2014-07-27T02:55:46.323Z,68.74
2014-07-27T02:56:51.014Z,68.69
2014-07-27T02:57:55.687Z,68.81
2014-07-27T02:59:00.377Z,68.96
2014-07-27T03:00:05.066Z,68.79
2014-07-27T03:01:09.756Z,69.26
2014-07-27T03:02:14.742Z,69.57
2014-07-27T03:03:19.416Z,68.91
2014-07-27T03:04:24.106Z,68.97
2014-07-27T03:05:28.795Z,69.26
2014-07-27T03:06:33.766Z,69.14
2014-07-27T03:07:38.455Z,68.93
2014-07-27T03:08:43.145Z,69.24
2014-07-27T03:09:48.117Z,69.33
2014-07-27T03:10:52.806Z,68.93
2014-07-27T03:11:57.495Z,69.4
2014-07-27T03:13:02.184Z,68.97
2014-07-27T03:14:06.874Z,69
2014-07-27T03:15:11.563Z,69.18
2014-07-27T03:16:16.551Z,69.09
2014-07-27T03:17:21.223Z,69.21
2014-07-27T03:18:26.210Z,69.1
2014-07-27T03:19:30.900Z,69.84
2014-07-27T03:20:35.592Z,69.39
2014-07-27T03:21:40.280Z,69.44
2014-07-27T03:22:44.954Z,69.86
2014-07-27T03:23:49.644Z,69.4
2014-07-27T03:24:54.333Z,69.06
2014-07-27T03:25:59.305Z,69.66
2014-07-27T03:27:03.994Z,69.7
2014-07-27T03:28:08.667Z,69.41
2014-07-27T03:29:13.358Z,69.57
2014-07-27T03:30:18.047Z,69.67
2014-07-27T03:31:22.720Z,69.2
2014-07-27T03:32:27.411Z,69.26
2014-07-27T03:33:32.099Z,69.05
2014-07-27T03:34:36.774Z,69.11
2014-07-27T03:35:41.464Z,69.03
2014-07-27T03:36:46.137Z,69.22
2014-07-27T03:37:50.827Z,69.16
2014-07-27T03:38:55.516Z,69.35
2014-07-27T03:40:00.206Z,69.14
2014-07-27T03:41:05.177Z,68.85
2014-07-27T03:42:10.163Z,68.92
2014-07-27T03:43:14.852Z,69.14
2014-07-27T03:44:19.526Z,68.88
2014-07-27T03:45:24.513Z,69.12
2014-07-27T03:46:28.515Z,69.7
2014-07-27T03:47:33.204Z,69.48
2014-07-27T03:48:37.878Z,69.45
2014-07-27T03:49:42.568Z,69.45
2014-07-27T03:50:47.257Z,69.89
2014-07-27T03:51:52.244Z,69.47
2014-07-27T03:52:56.933Z,69.29
2014-07-27T03:54:01.607Z,69.15
2014-07-27T03:55:06.296Z,69.71
2014-07-27T03:56:10.986Z,70.35
2014-07-27T03:57:15.675Z,71.38
2014-07-27T03:58:20.365Z,71.22
2014-07-27T03:59:25.055Z,71.27
2014-07-27T04:00:29.730Z,71.25
2014-07-27T04:01:34.420Z,71.02
2014-07-27T04:02:39.109Z,70.71
2014-07-27T04:03:44.080Z,70.99
2014-07-27T04:04:48.801Z,70.72
2014-07-27T04:05:53.475Z,70.43
2014-07-27T04:06:58.164Z,70.3
2014-07-27T04:08:02.839Z,69.91
2014-07-27T04:09:07.529Z,69.64
2014-07-27T04:10:12.217Z,69.84
2014-07-27T04:11:16.892Z,70.09
2014-07-27T04:12:21.581Z,69.5
2014-07-27T04:13:26.254Z,69.36
2014-07-27T04:14:30.256Z,70.11
2014-07-27T04:15:34.930Z,70.59
2014-07-27T04:16:39.621Z,70.82
2014-07-27T04:17:44.310Z,70.25
2014-07-27T04:18:48.999Z,69.88
2014-07-27T04:19:53.688Z,69.93
2014-07-27T04:20:58.379Z,69.51
2014-07-27T04:22:03.349Z,69.29
2014-07-27T04:23:08.039Z,69.35
2014-07-27T04:24:12.728Z,69.35
2014-07-27T04:25:17.715Z,69.29
2014-07-27T04:26:22.389Z,69.54
2014-07-27T04:27:27.078Z,69.29
2014-07-27T04:28:31.768Z,69.12
2014-07-27T04:29:36.754Z,69.74
2014-07-27T04:30:41.444Z,69.59
2014-07-27T04:31:46.133Z,69.33
2014-07-27T04:32:50.823Z,69.46
2014-07-27T04:33:55.497Z,70.19
2014-07-27T04:35:00.484Z,70.62
2014-07-27T04:36:05.470Z,70.47
2014-07-27T04:37:10.160Z,70.4
2014-07-27T04:38:15.129Z,70.21
2014-07-27T04:39:19.819Z,69.51
2014-07-27T04:40:24.508Z,69.3
2014-07-27T04:41:29.481Z,69.14
2014-07-27T04:42:34.171Z,69.06
2014-07-27T04:43:39.165Z,68.73
2014-07-27T04:44:43.895Z,68.56
2014-07-27T04:45:48.608Z,68.6
2014-07-27T04:46:53.337Z,68.86
2014-07-27T04:47:58.348Z,68.61
2014-07-27T04:49:03.072Z,68.61
2014-07-27T04:50:07.761Z,68.35
2014-07-27T04:51:12.465Z,68.08
2014-07-27T04:52:17.153Z,68.52
2014-07-27T04:53:22.154Z,68.29
2014-07-27T04:54:26.863Z,68.22
2014-07-27T04:55:31.542Z,67.94
2014-07-27T04:56:36.535Z,67.72
2014-07-27T04:57:41.526Z,67.68
2014-07-27T04:58:46.220Z,67.74
2014-07-27T04:59:51.209Z,67.41
2014-07-27T05:00:55.884Z,67.41
2014-07-27T05:02:00.575Z,67.37
2014-07-27T05:03:05.267Z,67.56
2014-07-27T05:04:10.255Z,67.28
2014-07-27T05:05:14.960Z,67.16
2014-07-27T05:06:19.650Z,67.15
2014-07-27T05:07:24.339Z,67.47
2014-07-27T05:08:29.016Z,67.81
2014-07-27T05:09:33.706Z,67.16
2014-07-27T05:10:38.396Z,67.31
2014-07-27T05:11:43.086Z,67.41
2014-07-27T05:12:48.056Z,67.81
2014-07-27T05:13:52.747Z,67.72
2014-07-27T05:14:57.748Z,67.64
2014-07-27T05:16:02.437Z,67.04
2014-07-27T05:17:07.127Z,67.15
2014-07-27T05:18:12.113Z,66.68
2014-07-27T05:19:16.787Z,66.77
2014-07-27T05:20:21.773Z,66.7
2014-07-27T05:21:26.463Z,66.72
2014-07-27T05:22:31.137Z,67.09
2014-07-27T05:23:35.826Z,66.99
2014-07-27T05:24:40.500Z,66.49
2014-07-27T05:25:45.487Z,67.38
2014-07-27T05:26:50.473Z,66.84
2014-07-27T05:27:55.162Z,66.2
2014-07-27T05:28:59.836Z,66.06
2014-07-27T05:30:04.528Z,66.12
2014-07-27T05:31:09.217Z,66.51
2014-07-27T05:32:13.890Z,66.57
2014-07-27T05:33:18.878Z,66.08
2014-07-27T05:34:23.567Z,66.29
2014-07-27T05:35:28.241Z,66.64
2014-07-27T05:36:33.227Z,66.66
2014-07-27T05:37:38.214Z,66.21
2014-07-27T05:38:42.903Z,66.54
2014-07-27T05:39:47.874Z,66.19
2014-07-27T05:40:52.563Z,65.85
2014-07-27T05:41:57.253Z,66.21
2014-07-27T05:43:01.942Z,66.19
2014-07-27T05:44:06.929Z,65.83
2014-07-27T05:45:11.618Z,65.61
2014-07-27T05:46:16.292Z,66.15
2014-07-27T05:47:20.982Z,65.88
2014-07-27T05:48:25.671Z,65.64
2014-07-27T05:49:30.361Z,65.12
2014-07-27T05:50:35.050Z,65.18
2014-07-27T05:51:39.723Z,65.58
2014-07-27T05:52:44.414Z,65.45
2014-07-27T05:53:49.103Z,65.16
2014-07-27T05:54:54.089Z,65.34
2014-07-27T05:55:58.763Z,65.45
2014-07-27T05:57:03.453Z,64.98
2014-07-27T05:58:08.439Z,64.32
2014-07-27T05:59:13.113Z,63.25
2014-07-27T06:00:17.803Z,62.61
2014-07-27T06:01:22.492Z,61.54
2014-07-27T06:02:26.496Z,60.26
2014-07-27T06:03:31.170Z,58.63
2014-07-27T06:04:36.156Z,58
2014-07-27T06:05:40.846Z,57.75
2014-07-27T06:06:45.832Z,58.13
2014-07-27T06:07:50.507Z,58.68
2014-07-27T06:08:55.492Z,59.68
2014-07-27T06:10:00.183Z,59.42
2014-07-27T06:11:04.872Z,59.17
2014-07-27T06:12:09.858Z,58.16
2014-07-27T06:13:14.548Z,57.18
2014-07-27T06:14:19.237Z,55.92
2014-07-27T06:15:23.926Z,55.56
2014-07-27T06:16:28.617Z,54.14
2014-07-27T06:17:33.305Z,54.99
2014-07-27T06:18:37.996Z,55.44
2014-07-27T06:19:42.685Z,56.08
2014-07-27T06:20:47.375Z,56.51
2014-07-27T06:21:52.361Z,57.06
2014-07-27T06:22:57.348Z,57.18
2014-07-27T06:24:02.036Z,56.87
2014-07-27T06:25:07.022Z,56.3
2014-07-27T06:26:12.010Z,55.7
2014-07-27T06:27:16.698Z,55.89
2014-07-27T06:28:21.670Z,57.41
2014-07-27T06:29:26.360Z,58.59
2014-07-27T06:30:31.050Z,59.35
2014-07-27T06:31:35.739Z,59.89
2014-07-27T06:32:40.428Z,60.88
2014-07-27T06:33:45.118Z,60.7
2014-07-27T06:34:49.808Z,60.86
2014-07-27T06:35:54.498Z,60.87
2014-07-27T06:36:59.186Z,61.31
2014-07-27T06:38:03.876Z,61.45
2014-07-27T06:39:08.565Z,62.84
2014-07-27T06:40:13.239Z,63.27
2014-07-27T06:41:18.225Z,64.06
2014-07-27T06:42:22.916Z,63.17
2014-07-27T06:43:27.902Z,62.91
2014-07-27T06:44:33.185Z,62.94
2014-07-27T06:45:37.874Z,63.18
2014-07-27T06:46:42.563Z,62.83
2014-07-27T06:47:47.551Z,63.64
2014-07-27T06:48:52.240Z,64.14
2014-07-27T06:49:56.930Z,63.51
2014-07-27T06:51:01.618Z,64.08
2014-07-27T06:52:06.324Z,64.13
2014-07-27T06:53:11.015Z,63.58
2014-07-27T06:54:15.704Z,63.45
2014-07-27T06:55:20.394Z,63.18
2014-07-27T06:56:25.068Z,62.74
2014-07-27T06:57:29.367Z,62.81
2014-07-27T06:58:34.057Z,63.14
2014-07-27T06:59:38.747Z,62.66
2014-07-27T07:00:43.421Z,62.72
2014-07-27T07:01:48.109Z,62.25
2014-07-27T07:02:52.799Z,61.59
2014-07-27T07:03:57.786Z,60.97
2014-07-27T07:05:02.474Z,60.04
2014-07-27T07:06:07.148Z,60.23
2014-07-27T07:07:11.838Z,60.06
2014-07-27T07:08:16.527Z,60.3
2014-07-27T07:09:21.217Z,60.81
2014-07-27T07:10:25.891Z,60.26
2014-07-27T07:11:30.580Z,59.05
2014-07-27T07:12:35.569Z,59.39
2014-07-27T07:13:40.258Z,59.08
2014-07-27T07:14:44.948Z,59.31
2014-07-27T07:15:49.637Z,60.5
2014-07-27T07:16:54.623Z,60.51
2014-07-27T07:17:59.609Z,60.59
2014-07-27T07:19:04.596Z,59.15
2014-07-27T07:20:09.286Z,60.47
2014-07-27T07:21:14.272Z,60.73
2014-07-27T07:22:18.945Z,60.15
2014-07-27T07:23:23.635Z,59.93
2014-07-27T07:24:28.325Z,59.65
2014-07-27T07:25:33.014Z,59.38
2014-07-27T07:26:37.704Z,58.07
2014-07-27T07:27:42.378Z,57.51
2014-07-27T07:28:47.067Z,58.44
2014-07-27T07:29:51.758Z,58.31
2014-07-27T07:30:56.447Z,57.55
2014-07-27T07:32:01.136Z,57.4
2014-07-27T07:33:05.825Z,57.86
2014-07-27T07:34:10.812Z,57.68
2014-07-27T07:35:15.501Z,57.97
2014-07-27T07:36:20.472Z,57.95
2014-07-27T07:37:25.161Z,57.9
2014-07-27T07:38:29.851Z,58.2
2014-07-27T07:39:34.540Z,60.13
2014-07-27T07:40:39.511Z,60.19
2014-07-27T07:41:44.500Z,59.52
2014-07-27T07:42:49.188Z,58.31
2014-07-27T07:43:53.879Z,57.15
2014-07-27T07:44:58.864Z,58.38
2014-07-27T07:46:03.851Z,57.2
2014-07-27T07:47:08.541Z,56.63
2014-07-27T07:48:13.527Z,57.64
2014-07-27T07:49:18.217Z,57.61
2014-07-27T07:50:22.906Z,56.94
2014-07-27T07:51:27.596Z,56.66
2014-07-27T07:52:32.582Z,57.01
2014-07-27T07:53:37.256Z,56.35
2014-07-27T07:54:41.945Z,56.86
2014-07-27T07:55:46.932Z,56.94
2014-07-27T07:56:51.621Z,57.81
2014-07-27T07:57:56.311Z,57.31
2014-07-27T07:59:00.999Z,57.11
2014-07-27T08:00:05.970Z,57
2014-07-27T08:01:10.957Z,57.48
2014-07-27T08:02:15.944Z,57.01
2014-07-27T08:03:20.618Z,57.45
2014-07-27T08:04:25.308Z,56.89
2014-07-27T08:05:29.998Z,56.77
2014-07-27T08:06:34.984Z,56.8
2014-07-27T08:07:39.674Z,56.94
2014-07-27T08:08:44.363Z,56.7
2014-07-27T08:09:49.053Z,57.54
2014-07-27T08:10:53.742Z,57.77
2014-07-27T08:11:58.432Z,57.11
2014-07-27T08:13:03.121Z,56.59
2014-07-27T08:14:08.092Z,56.64
2014-07-27T08:15:12.781Z,56.33
2014-07-27T08:16:17.471Z,55.98
2014-07-27T08:17:22.159Z,55.79
2014-07-27T08:18:27.130Z,55.49
2014-07-27T08:19:31.821Z,56.06
2014-07-27T08:20:36.511Z,55.81
2014-07-27T08:21:41.202Z,55.57
2014-07-27T08:22:46.188Z,55.18
2014-07-27T08:23:50.876Z,54.73
2014-07-27T08:24:55.847Z,55.41
2014-07-27T08:26:00.834Z,54.84
2014-07-27T08:27:05.523Z,54.39
2014-07-27T08:28:10.213Z,55.74
2014-07-27T08:29:14.902Z,55.34
2014-07-27T08:30:20.185Z,54.35
2014-07-27T08:31:24.875Z,54.6
2014-07-27T08:32:29.564Z,54.31
2014-07-27T08:33:33.566Z,53.56
2014-07-27T08:34:38.256Z,54.95
2014-07-27T08:35:43.241Z,54.15
2014-07-27T08:36:47.933Z,53.72
2014-07-27T08:37:52.623Z,53.16
2014-07-27T08:38:57.609Z,53.64
2014-07-27T08:40:02.298Z,53.84
2014-07-27T08:41:06.988Z,53.75
2014-07-27T08:42:11.661Z,53.81
2014-07-27T08:43:16.351Z,53.58
2014-07-27T08:44:21.337Z,53.89
2014-07-27T08:45:26.027Z,53.17
2014-07-27T08:46:30.716Z,51.97
2014-07-27T08:47:35.703Z,51.81
2014-07-27T08:48:40.392Z,52.94
2014-07-27T08:49:45.379Z,53.4
2014-07-27T08:50:50.068Z,53.02
2014-07-27T08:51:54.773Z,51.87
2014-07-27T08:52:59.447Z,52.73
2014-07-27T08:54:04.746Z,52.76
2014-07-27T08:55:09.437Z,52.39
2014-07-27T08:56:14.126Z,51.96
2014-07-27T08:57:18.815Z,52.4
2014-07-27T08:58:23.506Z,52.76
2014-07-27T08:59:28.180Z,52.14
2014-07-27T09:00:33.165Z,52.1
2014-07-27T09:01:37.856Z,51.92
2014-07-27T09:02:42.544Z,50.91
2014-07-27T09:03:47.546Z,50.85
2014-07-27T09:04:52.236Z,51
2014-07-27T09:05:56.925Z,51.28
2014-07-27T09:07:01.615Z,50.3
2014-07-27T09:08:06.304Z,50.83
2014-07-27T09:09:10.995Z,51.12
2014-07-27T09:10:15.683Z,51.57
2014-07-27T09:11:20.374Z,50.91
2014-07-27T09:12:25.062Z,50.25
2014-07-27T09:13:29.754Z,50.15
2014-07-27T09:14:34.443Z,50.36
2014-07-27T09:15:39.133Z,50.9
2014-07-27T09:16:43.822Z,50.29
2014-07-27T09:17:48.793Z,50.88
2014-07-27T09:18:53.481Z,51.33
2014-07-27T09:19:58.171Z,51.52
2014-07-27T09:21:02.861Z,51.82
2014-07-27T09:22:07.551Z,50.96
2014-07-27T09:23:12.255Z,51.36
2014-07-27T09:24:16.946Z,51.32
2014-07-27T09:25:21.634Z,51.88
2014-07-27T09:26:26.325Z,51.47
2014-07-27T09:27:31.014Z,51.32
2014-07-27T09:28:35.704Z,51.47
2014-07-27T09:29:40.706Z,51.33
2014-07-27T09:30:45.394Z,51.13
2014-07-27T09:31:50.085Z,52.15
2014-07-27T09:32:54.774Z,51.27
2014-07-27T09:33:59.464Z,51.65
2014-07-27T09:35:04.153Z,51.07
2014-07-27T09:36:08.843Z,51.46
2014-07-27T09:37:13.532Z,51.49
2014-07-27T09:38:18.222Z,51.51
2014-07-27T09:39:22.911Z,51.46
2014-07-27T09:40:27.899Z,51.32
2014-07-27T09:41:32.589Z,51.96
2014-07-27T09:42:37.574Z,52.21
2014-07-27T09:43:42.265Z,53.22
2014-07-27T09:44:46.939Z,52.06
2014-07-27T09:45:50.941Z,51.92
2014-07-27T09:46:55.629Z,52.08
2014-07-27T09:48:00.617Z,52.22
2014-07-27T09:49:05.306Z,52.18
2014-07-27T09:50:09.996Z,52.29
2014-07-27T09:51:14.982Z,52.57
2014-07-27T09:52:19.671Z,52.7
2014-07-27T09:53:24.361Z,51.6
2014-07-27T09:54:29.050Z,51.68
2014-07-27T09:55:33.725Z,51.72
2014-07-27T09:56:38.414Z,52.09
2014-07-27T09:57:43.104Z,51.12
2014-07-27T09:58:47.794Z,51.08
2014-07-27T09:59:52.779Z,51.25
2014-07-27T10:00:57.500Z,50.85
2014-07-27T10:02:02.205Z,50.58
2014-07-27T10:03:06.895Z,50.02
2014-07-27T10:04:11.584Z,50.8
2014-07-27T10:05:16.274Z,50.81
2014-07-27T10:06:20.963Z,50.35
2014-07-27T10:07:25.654Z,50.93
2014-07-27T10:08:30.342Z,50.52
2014-07-27T10:09:35.032Z,49.94
2014-07-27T10:10:40.018Z,50.12
2014-07-27T10:11:44.707Z,50.4
2014-07-27T10:12:49.398Z,50.97
2014-07-27T10:13:54.086Z,50.85
2014-07-27T10:14:58.777Z,49.94
2014-07-27T10:16:03.763Z,49.49
2014-07-27T10:17:08.453Z,49.26
2014-07-27T10:18:13.158Z,49.2
2014-07-27T10:19:17.847Z,47.29
2014-07-27T10:20:22.537Z,47.49
2014-07-27T10:21:27.227Z,48.24
2014-07-27T10:22:32.214Z,47.89
2014-07-27T10:23:37.200Z,47.84
2014-07-27T10:24:41.890Z,47.91
2014-07-27T10:25:46.579Z,48.85
2014-07-27T10:26:51.253Z,48.54
2014-07-27T10:27:56.255Z,48.39
2014-07-27T10:29:00.945Z,47.95
2014-07-27T10:30:05.634Z,48.12
2014-07-27T10:31:10.324Z,48.61
2014-07-27T10:32:15.014Z,47.56
2014-07-27T10:33:19.015Z,46.73
2014-07-27T10:34:24.001Z,47.37
2014-07-27T10:35:28.989Z,47.43
2014-07-27T10:36:33.677Z,47
2014-07-27T10:37:38.368Z,47.15
2014-07-27T10:38:43.057Z,47.31
2014-07-27T10:39:47.747Z,45.91
2014-07-27T10:40:52.435Z,47.13
2014-07-27T10:41:57.422Z,47.04
2014-07-27T10:43:02.128Z,47.09
2014-07-27T10:44:06.817Z,47.37
2014-07-27T10:45:11.507Z,47.5
2014-07-27T10:46:16.181Z,46.53
2014-07-27T10:47:20.869Z,46.63
2014-07-27T10:48:25.559Z,46.64
2014-07-27T10:49:30.250Z,46.78
2014-07-27T10:50:34.940Z,47.36
2014-07-27T10:51:39.629Z,47.45
2014-07-27T10:52:44.319Z,47.83
2014-07-27T10:53:49.008Z,48.02
2014-07-27T10:54:53.698Z,47.46
2014-07-27T10:55:58.387Z,48.67
2014-07-27T10:57:03.077Z,47.89
2014-07-27T10:58:07.766Z,47.13
2014-07-27T10:59:12.456Z,47.17
2014-07-27T11:00:17.144Z,47.66
2014-07-27T11:01:21.835Z,47.85
2014-07-27T11:02:26.524Z,47.74
2014-07-27T11:03:31.214Z,47.49
2014-07-27T11:04:35.903Z,47.85
2014-07-27T11:05:40.593Z,47.7
2014-07-27T11:06:45.282Z,47.23
2014-07-27T11:07:50.315Z,49.06
2014-07-27T11:08:55.021Z,47.97
2014-07-27T11:10:00.007Z,48.39
2014-07-27T11:11:04.696Z,47.26
2014-07-27T11:12:09.386Z,47.7
2014-07-27T11:13:14.075Z,47.23
2014-07-27T11:14:18.765Z,46.78
2014-07-27T11:15:23.454Z,46.58
2014-07-27T11:16:28.146Z,46.89
2014-07-27T11:17:32.835Z,46.69
2014-07-27T11:18:37.822Z,46.64
2014-07-27T11:19:42.511Z,47.09
2014-07-27T11:20:47.201Z,46.19
2014-07-27T11:21:52.187Z,46.67
2014-07-27T11:22:56.877Z,45.21
2014-07-27T11:24:01.566Z,46.03
2014-07-27T11:25:06.553Z,46.47
2014-07-27T11:26:11.243Z,46.33
2014-07-27T11:27:16.228Z,46.5
2014-07-27T11:28:20.230Z,45.93
2014-07-27T11:29:25.218Z,45.54
2014-07-27T11:30:29.906Z,45.49
2014-07-27T11:31:34.596Z,44.58
2014-07-27T11:32:39.285Z,46.06
2014-07-27T11:33:43.976Z,45.36
2014-07-27T11:34:48.665Z,45.54
2014-07-27T11:35:53.354Z,45.48
2014-07-27T11:36:58.044Z,46.27
2014-07-27T11:38:02.734Z,45.91
2014-07-27T11:39:07.423Z,45.67
2014-07-27T11:40:12.113Z,45.03
2014-07-27T11:41:17.099Z,45.01
2014-07-27T11:42:22.085Z,45.35
2014-07-27T11:43:26.087Z,45.55
2014-07-27T11:44:30.778Z,45.97
2014-07-27T11:45:35.468Z,45.35
2014-07-27T11:46:40.173Z,46.6
2014-07-27T11:47:44.862Z,45.55
2014-07-27T11:48:49.552Z,46.77
2014-07-27T11:49:54.257Z,45.42
2014-07-27T11:50:59.243Z,45.44
2014-07-27T11:52:03.933Z,46.44
2014-07-27T11:53:08.638Z,46.65
2014-07-27T11:54:13.624Z,46.85
2014-07-27T11:55:18.610Z,44.85
2014-07-27T11:56:23.299Z,44.68
2014-07-27T11:57:28.287Z,46.08
2014-07-27T11:58:32.977Z,45.57
2014-07-27T11:59:37.666Z,45.11
2014-07-27T12:00:42.356Z,44.55
2014-07-27T12:01:47.045Z,44.86
2014-07-27T12:02:51.735Z,44.79
2014-07-27T12:03:56.424Z,44.26
2014-07-27T12:05:01.114Z,43.91
2014-07-27T12:06:05.819Z,44.09
2014-07-27T12:07:10.509Z,44.17
2014-07-27T12:08:15.198Z,43.64
2014-07-27T12:09:19.888Z,43.28
2014-07-27T12:10:24.577Z,44.05
2014-07-27T12:11:29.267Z,44.79
2014-07-27T12:12:33.956Z,46.26
2014-07-27T12:13:38.646Z,44.64
2014-07-27T12:14:43.633Z,44.32
2014-07-27T12:15:48.321Z,44.47
2014-07-27T12:16:53.308Z,44.27
2014-07-27T12:17:58.295Z,44.68
2014-07-27T12:19:02.985Z,44.77
2014-07-27T12:20:07.970Z,45.22
2014-07-27T12:21:12.956Z,44.63
2014-07-27T12:22:17.646Z,43.35
2014-07-27T12:23:22.335Z,43.08
2014-07-27T12:24:27.324Z,43.32
2014-07-27T12:25:32.013Z,43.56
2014-07-27T12:26:37.000Z,42.96
2014-07-27T12:27:41.689Z,43.16
2014-07-27T12:28:46.691Z,43.29
2014-07-27T12:29:51.381Z,43.13
2014-07-27T12:30:56.069Z,42.77
2014-07-27T12:32:00.759Z,42.88
2014-07-27T12:33:05.448Z,43.06
2014-07-27T12:34:10.138Z,42.61
2014-07-27T12:35:14.827Z,43.24
2014-07-27T12:36:19.517Z,42.59
2014-07-27T12:37:24.206Z,42.67
2014-07-27T12:38:28.896Z,42.79
2014-07-27T12:39:33.882Z,42.82
2014-07-27T12:40:38.573Z,42.7
2014-07-27T12:41:43.261Z,42.51
2014-07-27T12:42:47.951Z,42.28
2014-07-27T12:43:52.640Z,42.91
2014-07-27T12:44:57.330Z,42.5
2014-07-27T12:46:02.019Z,41.88
2014-07-27T12:47:06.709Z,42.24
2014-07-27T12:48:11.399Z,41.65
2014-07-27T12:49:16.104Z,42
2014-07-27T12:50:20.794Z,42.09
2014-07-27T12:51:25.482Z,42.38
2014-07-27T12:52:30.174Z,41.77
2014-07-27T12:53:34.863Z,42.03
2014-07-27T12:54:39.553Z,42.29
2014-07-27T12:55:44.258Z,43.16
2014-07-27T12:56:49.244Z,41.88
2014-07-27T12:57:53.935Z,41.23
2014-07-27T12:58:58.623Z,41.04
2014-07-27T13:00:03.313Z,41.61
2014-07-27T13:01:08.002Z,40.42
2014-07-27T13:02:12.692Z,40.91
2014-07-27T13:03:17.381Z,41.61
2014-07-27T13:04:22.072Z,41.48
2014-07-27T13:05:27.058Z,41.98
2014-07-27T13:06:31.748Z,41.81
2014-07-27T13:07:36.437Z,42.31
2014-07-27T13:08:41.126Z,41.49
2014-07-27T13:09:45.816Z,41.68
2014-07-27T13:10:50.506Z,40.81
2014-07-27T13:11:55.195Z,42
2014-07-27T13:12:59.885Z,40.21
2014-07-27T13:14:04.574Z,41.25
2014-07-27T13:15:09.264Z,40.5
2014-07-27T13:16:13.297Z,39.03
2014-07-27T13:17:17.986Z,39.59
2014-07-27T13:18:22.676Z,39.36
2014-07-27T13:19:26.693Z,40.62
2014-07-27T13:20:31.383Z,40.6
2014-07-27T13:21:36.072Z,40.52
2014-07-27T13:22:40.763Z,40.98
2014-07-27T13:23:45.748Z,40.57
2014-07-27T13:24:50.439Z,40.23
2014-07-27T13:25:55.127Z,40.41
2014-07-27T13:26:59.818Z,41.58
2014-07-27T13:28:04.507Z,41.09
2014-07-27T13:29:09.212Z,41.74
2014-07-27T13:30:13.902Z,41.82
2014-07-27T13:31:18.591Z,41.75
2014-07-27T13:32:23.280Z,41.98
2014-07-27T13:33:27.971Z,42.62
2014-07-27T13:34:32.661Z,42.72
2014-07-27T13:35:37.647Z,43.07
2014-07-27T13:36:42.634Z,42.87
2014-07-27T13:37:47.323Z,41.97
2014-07-27T13:38:52.013Z,42.76
2014-07-27T13:39:56.999Z,42.98
2014-07-27T13:41:01.985Z,42.94
2014-07-27T13:42:06.674Z,43.78
2014-07-27T13:43:11.676Z,43.23
2014-07-27T13:44:16.365Z,42.75
2014-07-27T13:45:21.055Z,42.1
2014-07-27T13:46:25.744Z,42.89
2014-07-27T13:47:30.435Z,42.44
2014-07-27T13:48:35.123Z,41.39
2014-07-27T13:49:39.814Z,42.17
2014-07-27T13:50:44.532Z,42.91
2014-07-27T13:51:49.860Z,42.64
2014-07-27T13:52:54.590Z,41.79
2014-07-27T13:53:59.326Z,41.89
2014-07-27T13:55:04.352Z,42.08
2014-07-27T13:56:09.060Z,42.23
2014-07-27T13:57:13.763Z,42.66